sensor_id;sensor_type;location;lat;lon;timestamp;P1;durP1;ratioP1;P2;durP2;ratioP2
11955;SDS011;6038;52.276;10.530;2023-07-30T00:01:48;427.50;;;397.00;;
11955;SDS011;6038;52.276;10.530;2023-07-30T00:04:14;483.02;;;450.30;;
11955;SDS011;6038;52.276;10.530;2023-07-30T00:06:40;459.63;;;428.80;;
11955;SDS011;6038;52.276;10.530;2023-07-30T00:09:06;455.02;;;422.23;;
11955;SDS011;6038;52.276;10.530;2023-07-30T00:11:32;480.50;;;447.75;;
11955;SDS011;6038;52.276;10.530;2023-07-30T00:13:58;508.27;;;473.38;;
11955;SDS011;6038;52.276;10.530;2023-07-30T00:16:27;491.60;;;456.00;;
11955;SDS011;6038;52.276;10.530;2023-07-30T00:18:53;476.30;;;441.98;;
11955;SDS011;6038;52.276;10.530;2023-07-30T00:21:19;488.98;;;453.45;;
11955;SDS011;6038;52.276;10.530;2023-07-30T00:23:45;542.73;;;505.73;;
11955;SDS011;6038;52.276;10.530;2023-07-30T00:26:11;452.70;;;420.30;;
11955;SDS011;6038;52.276;10.530;2023-07-30T00:28:37;532.63;;;496.15;;
11955;SDS011;6038;52.276;10.530;2023-07-30T00:31:03;523.17;;;487.40;;
11955;SDS011;6038;52.276;10.530;2023-07-30T00:33:29;524.87;;;488.67;;
11955;SDS011;6038;52.276;10.530;2023-07-30T00:35:55;551.53;;;513.70;;
11955;SDS011;6038;52.276;10.530;2023-07-30T00:38:21;539.20;;;502.40;;
11955;SDS011;6038;52.276;10.530;2023-07-30T00:40:47;515.10;;;477.57;;
11955;SDS011;6038;52.276;10.530;2023-07-30T00:43:13;459.77;;;426.57;;
11955;SDS011;6038;52.276;10.530;2023-07-30T00:45:40;513.40;;;476.20;;
11955;SDS011;6038;52.276;10.530;2023-07-30T00:48:06;524.00;;;488.17;;
11955;SDS011;6038;52.276;10.530;2023-07-30T00:50:32;536.80;;;497.73;;
11955;SDS011;6038;52.276;10.530;2023-07-30T00:52:58;578.97;;;539.35;;
11955;SDS011;6038;52.276;10.530;2023-07-30T00:55:24;570.13;;;528.33;;
11955;SDS011;6038;52.276;10.530;2023-07-30T00:57:51;491.83;;;456.40;;
11955;SDS011;6038;52.276;10.530;2023-07-30T01:00:17;555.43;;;517.50;;
11955;SDS011;6038;52.276;10.530;2023-07-30T01:02:43;602.37;;;560.80;;
11955;SDS011;6038;52.276;10.530;2023-07-30T01:05:09;608.63;;;566.87;;
11955;SDS011;6038;52.276;10.530;2023-07-30T01:07:35;516.67;;;478.97;;
11955;SDS011;6038;52.276;10.530;2023-07-30T01:10:02;601.27;;;559.97;;
11955;SDS011;6038;52.276;10.530;2023-07-30T01:12:28;543.97;;;504.30;;
11955;SDS011;6038;52.276;10.530;2023-07-30T01:14:56;571.73;;;532.70;;
11955;SDS011;6038;52.276;10.530;2023-07-30T01:17:22;558.40;;;520.20;;
11955;SDS011;6038;52.276;10.530;2023-07-30T01:19:48;545.50;;;505.70;;
11955;SDS011;6038;52.276;10.530;2023-07-30T01:22:15;528.87;;;490.27;;
11955;SDS011;6038;52.276;10.530;2023-07-30T01:24:41;567.00;;;528.20;;
11955;SDS011;6038;52.276;10.530;2023-07-30T01:27:07;557.00;;;516.30;;
11955;SDS011;6038;52.276;10.530;2023-07-30T01:29:41;582.07;;;542.17;;
11955;SDS011;6038;52.276;10.530;2023-07-30T01:32:08;542.90;;;503.40;;
11955;SDS011;6038;52.276;10.530;2023-07-30T01:34:36;619.93;;;577.43;;
11955;SDS011;6038;52.276;10.530;2023-07-30T01:37:03;591.33;;;550.73;;
11955;SDS011;6038;52.276;10.530;2023-07-30T01:39:30;563.97;;;522.87;;
11955;SDS011;6038;52.276;10.530;2023-07-30T01:41:56;527.03;;;488.53;;
11955;SDS011;6038;52.276;10.530;2023-07-30T01:44:22;625.60;;;582.70;;
11955;SDS011;6038;52.276;10.530;2023-07-30T01:46:48;619.95;;;577.30;;
11955;SDS011;6038;52.276;10.530;2023-07-30T01:49:14;564.75;;;523.55;;
11955;SDS011;6038;52.276;10.530;2023-07-30T01:51:40;604.80;;;563.38;;
11955;SDS011;6038;52.276;10.530;2023-07-30T01:54:06;569.05;;;527.35;;
11955;SDS011;6038;52.276;10.530;2023-07-30T01:56:32;605.50;;;563.95;;
11955;SDS011;6038;52.276;10.530;2023-07-30T01:58:58;582.22;;;542.10;;
11955;SDS011;6038;52.276;10.530;2023-07-30T02:01:24;563.70;;;522.50;;
11955;SDS011;6038;52.276;10.530;2023-07-30T02:03:50;570.17;;;528.47;;
11955;SDS011;6038;52.276;10.530;2023-07-30T02:06:16;565.72;;;524.50;;
11955;SDS011;6038;52.276;10.530;2023-07-30T02:08:42;560.83;;;519.85;;
11955;SDS011;6038;52.276;10.530;2023-07-30T02:11:08;560.60;;;519.85;;
11955;SDS011;6038;52.276;10.530;2023-07-30T02:13:34;594.22;;;553.35;;
11955;SDS011;6038;52.276;10.530;2023-07-30T02:16:00;599.47;;;558.23;;
11955;SDS011;6038;52.276;10.530;2023-07-30T02:18:26;562.37;;;521.43;;
11955;SDS011;6038;52.276;10.530;2023-07-30T02:20:52;530.38;;;491.90;;
11955;SDS011;6038;52.276;10.530;2023-07-30T02:23:18;517.50;;;480.03;;
11955;SDS011;6038;52.276;10.530;2023-07-30T02:25:44;605.65;;;564.15;;
11955;SDS011;6038;52.276;10.530;2023-07-30T02:28:10;555.63;;;517.77;;
11955;SDS011;6038;52.276;10.530;2023-07-30T02:30:36;596.83;;;555.93;;
11955;SDS011;6038;52.276;10.530;2023-07-30T02:33:02;595.95;;;555.08;;
11955;SDS011;6038;52.276;10.530;2023-07-30T02:35:28;596.07;;;555.07;;
11955;SDS011;6038;52.276;10.530;2023-07-30T02:37:54;564.17;;;525.63;;
11955;SDS011;6038;52.276;10.530;2023-07-30T02:40:20;561.67;;;523.22;;
11955;SDS011;6038;52.276;10.530;2023-07-30T02:42:46;618.07;;;575.63;;
11955;SDS011;6038;52.276;10.530;2023-07-30T02:45:12;551.15;;;511.20;;
11955;SDS011;6038;52.276;10.530;2023-07-30T02:47:38;571.72;;;532.53;;
11955;SDS011;6038;52.276;10.530;2023-07-30T02:50:04;615.23;;;572.97;;
11955;SDS011;6038;52.276;10.530;2023-07-30T02:52:34;584.45;;;544.30;;
11955;SDS011;6038;52.276;10.530;2023-07-30T02:54:59;541.83;;;502.33;;
11955;SDS011;6038;52.276;10.530;2023-07-30T02:57:25;563.37;;;522.30;;
11955;SDS011;6038;52.276;10.530;2023-07-30T02:59:51;617.73;;;575.17;;
11955;SDS011;6038;52.276;10.530;2023-07-30T03:02:17;637.73;;;593.67;;
11955;SDS011;6038;52.276;10.530;2023-07-30T03:04:43;615.93;;;573.30;;
11955;SDS011;6038;52.276;10.530;2023-07-30T03:07:10;574.57;;;535.23;;
11955;SDS011;6038;52.276;10.530;2023-07-30T03:09:36;576.83;;;537.30;;
11955;SDS011;6038;52.276;10.530;2023-07-30T03:12:02;597.93;;;556.83;;
11955;SDS011;6038;52.276;10.530;2023-07-30T03:14:29;576.97;;;537.60;;
11955;SDS011;6038;52.276;10.530;2023-07-30T03:16:55;625.20;;;582.37;;
11955;SDS011;6038;52.276;10.530;2023-07-30T03:19:21;565.60;;;524.13;;
11955;SDS011;6038;52.276;10.530;2023-07-30T03:21:47;539.67;;;500.47;;
11955;SDS011;6038;52.276;10.530;2023-07-30T03:24:12;602.93;;;561.50;;
11955;SDS011;6038;52.276;10.530;2023-07-30T03:26:38;591.03;;;550.43;;
11955;SDS011;6038;52.276;10.530;2023-07-30T03:29:04;597.97;;;557.00;;
11955;SDS011;6038;52.276;10.530;2023-07-30T03:31:30;607.60;;;566.13;;
11955;SDS011;6038;52.276;10.530;2023-07-30T03:33:57;578.57;;;538.97;;
11955;SDS011;6038;52.276;10.530;2023-07-30T03:36:22;577.03;;;537.73;;
11955;SDS011;6038;52.276;10.530;2023-07-30T03:38:48;550.10;;;509.90;;
11955;SDS011;6038;52.276;10.530;2023-07-30T03:41:14;573.97;;;534.77;;
11955;SDS011;6038;52.276;10.530;2023-07-30T03:43:40;577.70;;;538.50;;
11955;SDS011;6038;52.276;10.530;2023-07-30T03:46:06;548.57;;;508.63;;
11955;SDS011;6038;52.276;10.530;2023-07-30T03:48:32;549.00;;;508.73;;
11955;SDS011;6038;52.276;10.530;2023-07-30T03:50:58;554.13;;;516.43;;
11955;SDS011;6038;52.276;10.530;2023-07-30T03:53:24;571.43;;;529.53;;
11955;SDS011;6038;52.276;10.530;2023-07-30T03:55:50;580.97;;;541.23;;
11955;SDS011;6038;52.276;10.530;2023-07-30T03:58:16;543.43;;;503.87;;
11955;SDS011;6038;52.276;10.530;2023-07-30T04:00:42;593.93;;;553.07;;
11955;SDS011;6038;52.276;10.530;2023-07-30T04:03:08;555.87;;;515.20;;
11955;SDS011;6038;52.276;10.530;2023-07-30T04:05:34;649.10;;;604.60;;
11955;SDS011;6038;52.276;10.530;2023-07-30T04:08:00;632.77;;;589.03;;
11955;SDS011;6038;52.276;10.530;2023-07-30T04:10:26;587.60;;;544.33;;
11955;SDS011;6038;52.276;10.530;2023-07-30T04:12:52;559.90;;;519.00;;
11955;SDS011;6038;52.276;10.530;2023-07-30T04:15:18;622.43;;;579.53;;
11955;SDS011;6038;52.276;10.530;2023-07-30T04:17:44;528.63;;;490.00;;
11955;SDS011;6038;52.276;10.530;2023-07-30T04:20:10;543.00;;;503.27;;
11955;SDS011;6038;52.276;10.530;2023-07-30T04:22:36;608.23;;;566.57;;
11955;SDS011;6038;52.276;10.530;2023-07-30T04:25:03;551.33;;;511.10;;
11955;SDS011;6038;52.276;10.530;2023-07-30T04:27:29;643.30;;;599.30;;
11955;SDS011;6038;52.276;10.530;2023-07-30T04:29:55;640.17;;;596.03;;
11955;SDS011;6038;52.276;10.530;2023-07-30T04:32:21;640.03;;;596.00;;
11955;SDS011;6038;52.276;10.530;2023-07-30T04:34:47;572.63;;;530.63;;
11955;SDS011;6038;52.276;10.530;2023-07-30T04:37:13;607.33;;;565.63;;
11955;SDS011;6038;52.276;10.530;2023-07-30T04:39:39;627.17;;;584.10;;
11955;SDS011;6038;52.276;10.530;2023-07-30T04:42:05;638.93;;;595.27;;
11955;SDS011;6038;52.276;10.530;2023-07-30T04:44:31;631.53;;;588.03;;
11955;SDS011;6038;52.276;10.530;2023-07-30T04:46:57;627.30;;;584.40;;
11955;SDS011;6038;52.276;10.530;2023-07-30T04:49:23;569.87;;;528.17;;
11955;SDS011;6038;52.276;10.530;2023-07-30T04:51:49;564.13;;;522.53;;
11955;SDS011;6038;52.276;10.530;2023-07-30T04:54:15;565.50;;;523.83;;
11955;SDS011;6038;52.276;10.530;2023-07-30T04:56:41;543.93;;;504.17;;
11955;SDS011;6038;52.276;10.530;2023-07-30T04:59:07;588.87;;;545.60;;
11955;SDS011;6038;52.276;10.530;2023-07-30T05:01:33;595.27;;;551.57;;
11955;SDS011;6038;52.276;10.530;2023-07-30T05:03:59;613.63;;;571.70;;
11955;SDS011;6038;52.276;10.530;2023-07-30T05:06:25;566.83;;;525.23;;
11955;SDS011;6038;52.276;10.530;2023-07-30T05:08:51;585.33;;;542.17;;
11955;SDS011;6038;52.276;10.530;2023-07-30T05:11:17;615.47;;;573.10;;
11955;SDS011;6038;52.276;10.530;2023-07-30T05:13:43;643.03;;;598.63;;
11955;SDS011;6038;52.276;10.530;2023-07-30T05:16:09;596.60;;;555.77;;
11955;SDS011;6038;52.276;10.530;2023-07-30T05:18:35;552.80;;;512.40;;
11955;SDS011;6038;52.276;10.530;2023-07-30T05:21:01;620.67;;;578.23;;
11955;SDS011;6038;52.276;10.530;2023-07-30T05:23:28;619.97;;;577.27;;
11955;SDS011;6038;52.276;10.530;2023-07-30T05:25:54;566.53;;;524.87;;
11955;SDS011;6038;52.276;10.530;2023-07-30T05:28:20;547.97;;;507.87;;
11955;SDS011;6038;52.276;10.530;2023-07-30T05:30:46;599.87;;;558.43;;
11955;SDS011;6038;52.276;10.530;2023-07-30T05:33:12;568.20;;;526.30;;
11955;SDS011;6038;52.276;10.530;2023-07-30T05:35:38;604.10;;;562.60;;
11955;SDS011;6038;52.276;10.530;2023-07-30T05:38:04;605.10;;;563.63;;
11955;SDS011;6038;52.276;10.530;2023-07-30T05:40:30;558.90;;;518.00;;
11955;SDS011;6038;52.276;10.530;2023-07-30T05:42:56;573.83;;;531.83;;
11955;SDS011;6038;52.276;10.530;2023-07-30T05:45:22;570.10;;;528.30;;
11955;SDS011;6038;52.276;10.530;2023-07-30T05:47:48;622.83;;;580.20;;
11955;SDS011;6038;52.276;10.530;2023-07-30T05:50:13;582.83;;;539.90;;
11955;SDS011;6038;52.276;10.530;2023-07-30T05:52:39;587.93;;;547.60;;
11955;SDS011;6038;52.276;10.530;2023-07-30T05:55:05;603.97;;;562.57;;
11955;SDS011;6038;52.276;10.530;2023-07-30T05:57:31;612.20;;;567.10;;
11955;SDS011;6038;52.276;10.530;2023-07-30T05:59:57;617.37;;;574.50;;
11955;SDS011;6038;52.276;10.530;2023-07-30T06:02:23;593.50;;;552.73;;
11955;SDS011;6038;52.276;10.530;2023-07-30T06:04:49;613.67;;;571.37;;
11955;SDS011;6038;52.276;10.530;2023-07-30T06:07:15;668.43;;;622.07;;
11955;SDS011;6038;52.276;10.530;2023-07-30T06:09:41;624.20;;;581.10;;
11955;SDS011;6038;52.276;10.530;2023-07-30T06:12:07;590.13;;;546.83;;
11955;SDS011;6038;52.276;10.530;2023-07-30T06:14:33;623.50;;;577.30;;
11955;SDS011;6038;52.276;10.530;2023-07-30T06:17:00;678.53;;;631.53;;
11955;SDS011;6038;52.276;10.530;2023-07-30T06:19:25;585.43;;;542.43;;
11955;SDS011;6038;52.276;10.530;2023-07-30T06:21:52;563.63;;;522.20;;
11955;SDS011;6038;52.276;10.530;2023-07-30T06:24:17;665.63;;;619.33;;
11955;SDS011;6038;52.276;10.530;2023-07-30T06:26:43;687.30;;;638.93;;
11955;SDS011;6038;52.276;10.530;2023-07-30T06:29:09;678.70;;;631.47;;
11955;SDS011;6038;52.276;10.530;2023-07-30T06:31:35;666.87;;;620.00;;
11955;SDS011;6038;52.276;10.530;2023-07-30T06:34:01;624.45;;;578.35;;
11955;SDS011;6038;52.276;10.530;2023-07-30T06:36:27;613.10;;;567.60;;
11955;SDS011;6038;52.276;10.530;2023-07-30T06:38:53;701.53;;;652.20;;
11955;SDS011;6038;52.276;10.530;2023-07-30T06:41:20;755.30;;;701.93;;
11955;SDS011;6038;52.276;10.530;2023-07-30T06:43:46;734.43;;;682.87;;
11955;SDS011;6038;52.276;10.530;2023-07-30T06:46:12;728.37;;;673.50;;
11955;SDS011;6038;52.276;10.530;2023-07-30T06:48:38;660.25;;;611.03;;
11955;SDS011;6038;52.276;10.530;2023-07-30T06:51:09;692.03;;;640.22;;
11955;SDS011;6038;52.276;10.530;2023-07-30T06:53:35;725.78;;;674.58;;
11955;SDS011;6038;52.276;10.530;2023-07-30T06:56:01;690.95;;;639.00;;
11955;SDS011;6038;52.276;10.530;2023-07-30T06:58:28;732.08;;;677.05;;
11955;SDS011;6038;52.276;10.530;2023-07-30T07:00:54;720.58;;;666.33;;
11955;SDS011;6038;52.276;10.530;2023-07-30T07:03:20;729.50;;;678.13;;
11955;SDS011;6038;52.276;10.530;2023-07-30T07:05:55;727.30;;;672.47;;
11955;SDS011;6038;52.276;10.530;2023-07-30T07:08:21;696.85;;;648.20;;
11955;SDS011;6038;52.276;10.530;2023-07-30T07:10:48;676.40;;;625.67;;
11955;SDS011;6038;52.276;10.530;2023-07-30T07:13:14;700.72;;;648.30;;
11955;SDS011;6038;52.276;10.530;2023-07-30T07:15:40;692.75;;;640.75;;
11955;SDS011;6038;52.276;10.530;2023-07-30T07:18:06;651.78;;;602.78;;
11955;SDS011;6038;52.276;10.530;2023-07-30T07:20:32;720.30;;;669.03;;
11955;SDS011;6038;52.276;10.530;2023-07-30T07:22:59;767.17;;;712.70;;
11955;SDS011;6038;52.276;10.530;2023-07-30T07:25:25;752.97;;;699.05;;
11955;SDS011;6038;52.276;10.530;2023-07-30T07:27:51;700.28;;;647.88;;
11955;SDS011;6038;52.276;10.530;2023-07-30T07:30:16;755.33;;;701.55;;
11955;SDS011;6038;52.276;10.530;2023-07-30T07:32:43;736.58;;;684.10;;
11955;SDS011;6038;52.276;10.530;2023-07-30T07:35:09;674.20;;;623.53;;
11955;SDS011;6038;52.276;10.530;2023-07-30T07:37:35;686.50;;;635.05;;
11955;SDS011;6038;52.276;10.530;2023-07-30T07:40:01;620.95;;;574.88;;
11955;SDS011;6038;52.276;10.530;2023-07-30T07:42:29;679.03;;;630.90;;
11955;SDS011;6038;52.276;10.530;2023-07-30T07:44:55;609.08;;;563.90;;
11955;SDS011;6038;52.276;10.530;2023-07-30T07:47:21;693.72;;;644.38;;
11955;SDS011;6038;52.276;10.530;2023-07-30T07:49:47;703.78;;;653.53;;
11955;SDS011;6038;52.276;10.530;2023-07-30T07:52:14;725.65;;;673.50;;
11955;SDS011;6038;52.276;10.530;2023-07-30T07:54:40;693.55;;;641.40;;
11955;SDS011;6038;52.276;10.530;2023-07-30T07:57:07;709.03;;;658.20;;
11955;SDS011;6038;52.276;10.530;2023-07-30T07:59:33;646.67;;;600.58;;
11955;SDS011;6038;52.276;10.530;2023-07-30T08:01:59;751.83;;;697.45;;
11955;SDS011;6038;52.276;10.530;2023-07-30T08:04:25;678.88;;;627.85;;
11955;SDS011;6038;52.276;10.530;2023-07-30T08:06:51;713.53;;;661.97;;
11955;SDS011;6038;52.276;10.530;2023-07-30T08:09:17;705.80;;;654.88;;
11955;SDS011;6038;52.276;10.530;2023-07-30T08:11:43;624.85;;;578.25;;
11955;SDS011;6038;52.276;10.530;2023-07-30T08:14:09;598.38;;;553.88;;
11955;SDS011;6038;52.276;10.530;2023-07-30T08:16:35;662.63;;;615.03;;
11955;SDS011;6038;52.276;10.530;2023-07-30T08:19:01;738.53;;;684.55;;
11955;SDS011;6038;52.276;10.530;2023-07-30T08:21:27;666.25;;;615.85;;
11955;SDS011;6038;52.276;10.530;2023-07-30T08:23:53;725.92;;;672.70;;
11955;SDS011;6038;52.276;10.530;2023-07-30T08:26:19;724.75;;;669.72;;
11955;SDS011;6038;52.276;10.530;2023-07-30T08:28:45;576.08;;;533.10;;
11955;SDS011;6038;52.276;10.530;2023-07-30T08:31:11;559.60;;;517.92;;
11955;SDS011;6038;52.276;10.530;2023-07-30T08:33:37;605.67;;;560.33;;
11955;SDS011;6038;52.276;10.530;2023-07-30T08:36:03;600.35;;;555.05;;
11955;SDS011;6038;52.276;10.530;2023-07-30T08:38:29;562.30;;;520.35;;
11955;SDS011;6038;52.276;10.530;2023-07-30T08:40:55;625.25;;;578.30;;
11955;SDS011;6038;52.276;10.530;2023-07-30T08:43:21;644.92;;;595.85;;
11955;SDS011;6038;52.276;10.530;2023-07-30T08:45:47;683.25;;;633.35;;
11955;SDS011;6038;52.276;10.530;2023-07-30T08:48:13;566.58;;;524.17;;
11955;SDS011;6038;52.276;10.530;2023-07-30T08:50:39;629.83;;;582.08;;
11955;SDS011;6038;52.276;10.530;2023-07-30T08:53:05;662.63;;;614.13;;
11955;SDS011;6038;52.276;10.530;2023-07-30T08:55:33;703.80;;;651.83;;
11955;SDS011;6038;52.276;10.530;2023-07-30T08:57:59;704.10;;;652.35;;
11955;SDS011;6038;52.276;10.530;2023-07-30T09:00:26;698.30;;;644.88;;
11955;SDS011;6038;52.276;10.530;2023-07-30T09:02:58;631.55;;;585.25;;
11955;SDS011;6038;52.276;10.530;2023-07-30T09:05:25;665.60;;;616.50;;
11955;SDS011;6038;52.276;10.530;2023-07-30T09:07:54;651.55;;;603.53;;
11955;SDS011;6038;52.276;10.530;2023-07-30T09:10:20;626.95;;;579.22;;
11955;SDS011;6038;52.276;10.530;2023-07-30T09:12:46;683.95;;;633.15;;
11955;SDS011;6038;52.276;10.530;2023-07-30T09:15:17;602.90;;;558.53;;
11955;SDS011;6038;52.276;10.530;2023-07-30T09:17:44;612.00;;;566.88;;
11955;SDS011;6038;52.276;10.530;2023-07-30T09:20:11;647.60;;;598.05;;
11955;SDS011;6038;52.276;10.530;2023-07-30T09:22:37;646.40;;;597.13;;
11955;SDS011;6038;52.276;10.530;2023-07-30T09:25:05;581.05;;;537.10;;
11955;SDS011;6038;52.276;10.530;2023-07-30T09:27:31;583.90;;;539.67;;
11955;SDS011;6038;52.276;10.530;2023-07-30T09:29:58;569.15;;;525.90;;
11955;SDS011;6038;52.276;10.530;2023-07-30T09:32:28;616.55;;;570.38;;
11955;SDS011;6038;52.276;10.530;2023-07-30T09:34:54;633.20;;;584.90;;
11955;SDS011;6038;52.276;10.530;2023-07-30T09:37:21;579.42;;;536.25;;
11955;SDS011;6038;52.276;10.530;2023-07-30T09:39:47;591.10;;;545.80;;
11955;SDS011;6038;52.276;10.530;2023-07-30T09:42:13;622.75;;;574.78;;
11955;SDS011;6038;52.276;10.530;2023-07-30T09:44:39;595.78;;;550.10;;
11955;SDS011;6038;52.276;10.530;2023-07-30T09:47:09;601.20;;;555.95;;
11955;SDS011;6038;52.276;10.530;2023-07-30T09:49:36;576.13;;;533.05;;
11955;SDS011;6038;52.276;10.530;2023-07-30T09:52:03;615.92;;;569.42;;
11955;SDS011;6038;52.276;10.530;2023-07-30T09:54:29;613.53;;;567.13;;
11955;SDS011;6038;52.276;10.530;2023-07-30T09:56:56;627.10;;;579.40;;
11955;SDS011;6038;52.276;10.530;2023-07-30T09:59:22;559.95;;;517.80;;
11955;SDS011;6038;52.276;10.530;2023-07-30T10:01:49;612.08;;;565.95;;
11955;SDS011;6038;52.276;10.530;2023-07-30T10:04:18;608.22;;;561.22;;
11955;SDS011;6038;52.276;10.530;2023-07-30T10:06:46;617.90;;;570.83;;
11955;SDS011;6038;52.276;10.530;2023-07-30T10:09:14;660.78;;;609.08;;
11955;SDS011;6038;52.276;10.530;2023-07-30T10:11:43;638.38;;;588.53;;
11955;SDS011;6038;52.276;10.530;2023-07-30T10:14:10;605.53;;;559.83;;
11955;SDS011;6038;52.276;10.530;2023-07-30T10:16:36;599.35;;;553.10;;
11955;SDS011;6038;52.276;10.530;2023-07-30T10:19:02;591.90;;;546.53;;
11955;SDS011;6038;52.276;10.530;2023-07-30T10:21:31;635.97;;;587.72;;
11955;SDS011;6038;52.276;10.530;2023-07-30T10:24:02;616.70;;;570.05;;
11955;SDS011;6038;52.276;10.530;2023-07-30T10:26:32;653.50;;;603.67;;
11955;SDS011;6038;52.276;10.530;2023-07-30T10:29:11;680.55;;;627.30;;
11955;SDS011;6038;52.276;10.530;2023-07-30T10:31:38;664.45;;;612.63;;
11955;SDS011;6038;52.276;10.530;2023-07-30T10:34:08;634.75;;;585.58;;
11955;SDS011;6038;52.276;10.530;2023-07-30T10:36:46;710.05;;;654.85;;
11955;SDS011;6038;52.276;10.530;2023-07-30T10:39:14;735.90;;;678.72;;
11955;SDS011;6038;52.276;10.530;2023-07-30T10:41:40;751.15;;;694.13;;
11955;SDS011;6038;52.276;10.530;2023-07-30T10:44:06;630.63;;;583.75;;
11955;SDS011;6038;52.276;10.530;2023-07-30T10:46:32;672.95;;;622.60;;
11955;SDS011;6038;52.276;10.530;2023-07-30T10:48:58;672.22;;;622.45;;
11955;SDS011;6038;52.276;10.530;2023-07-30T10:51:24;711.55;;;657.10;;
11955;SDS011;6038;52.276;10.530;2023-07-30T10:53:50;714.90;;;660.40;;
11955;SDS011;6038;52.276;10.530;2023-07-30T10:56:18;692.80;;;639.92;;
11955;SDS011;6038;52.276;10.530;2023-07-30T10:58:48;737.83;;;682.83;;
11955;SDS011;6038;52.276;10.530;2023-07-30T11:01:14;724.88;;;669.40;;
11955;SDS011;6038;52.276;10.530;2023-07-30T11:03:41;744.05;;;689.15;;
11955;SDS011;6038;52.276;10.530;2023-07-30T11:06:07;695.03;;;641.90;;
11955;SDS011;6038;52.276;10.530;2023-07-30T11:08:40;776.70;;;718.83;;
11955;SDS011;6038;52.276;10.530;2023-07-30T11:11:07;679.58;;;628.08;;
11955;SDS011;6038;52.276;10.530;2023-07-30T11:13:37;692.17;;;639.15;;
11955;SDS011;6038;52.276;10.530;2023-07-30T11:16:07;709.70;;;657.03;;
11955;SDS011;6038;52.276;10.530;2023-07-30T11:18:33;669.95;;;619.03;;
11955;SDS011;6038;52.276;10.530;2023-07-30T11:21:06;714.47;;;659.53;;
11955;SDS011;6038;52.276;10.530;2023-07-30T11:23:33;720.72;;;667.13;;
11955;SDS011;6038;52.276;10.530;2023-07-30T11:26:00;728.80;;;672.72;;
11955;SDS011;6038;52.276;10.530;2023-07-30T11:28:30;763.05;;;706.33;;
11955;SDS011;6038;52.276;10.530;2023-07-30T11:31:00;680.92;;;629.28;;
11955;SDS011;6038;52.276;10.530;2023-07-30T11:33:27;670.33;;;621.17;;
11955;SDS011;6038;52.276;10.530;2023-07-30T11:35:56;693.63;;;642.40;;
11955;SDS011;6038;52.276;10.530;2023-07-30T11:38:23;759.88;;;703.33;;
11955;SDS011;6038;52.276;10.530;2023-07-30T11:40:50;648.70;;;599.80;;
11955;SDS011;6038;52.276;10.530;2023-07-30T11:43:16;714.65;;;661.85;;
11955;SDS011;6038;52.276;10.530;2023-07-30T11:45:42;719.05;;;663.78;;
11955;SDS011;6038;52.276;10.530;2023-07-30T11:48:09;746.92;;;689.78;;
11955;SDS011;6038;52.276;10.530;2023-07-30T11:50:48;698.60;;;647.30;;
11955;SDS011;6038;52.276;10.530;2023-07-30T11:53:14;687.22;;;637.00;;
11955;SDS011;6038;52.276;10.530;2023-07-30T11:55:41;726.55;;;671.35;;
11955;SDS011;6038;52.276;10.530;2023-07-30T11:58:08;722.00;;;667.10;;
11955;SDS011;6038;52.276;10.530;2023-07-30T12:00:34;693.88;;;641.25;;
11955;SDS011;6038;52.276;10.530;2023-07-30T12:03:02;637.42;;;589.35;;
11955;SDS011;6038;52.276;10.530;2023-07-30T12:05:32;668.97;;;619.58;;
11955;SDS011;6038;52.276;10.530;2023-07-30T12:07:58;587.92;;;543.88;;
11955;SDS011;6038;52.276;10.530;2023-07-30T12:10:27;644.67;;;595.78;;
11955;SDS011;6038;52.276;10.530;2023-07-30T12:12:53;669.97;;;620.00;;
11955;SDS011;6038;52.276;10.530;2023-07-30T12:15:20;685.47;;;633.08;;
11955;SDS011;6038;52.276;10.530;2023-07-30T12:17:47;680.67;;;630.08;;
11955;SDS011;6038;52.276;10.530;2023-07-30T12:20:13;703.88;;;651.40;;
11955;SDS011;6038;52.276;10.530;2023-07-30T12:22:39;750.85;;;694.67;;
11955;SDS011;6038;52.276;10.530;2023-07-30T12:25:07;752.58;;;696.10;;
11955;SDS011;6038;52.276;10.530;2023-07-30T12:27:34;657.00;;;608.35;;
11955;SDS011;6038;52.276;10.530;2023-07-30T12:30:01;626.88;;;579.22;;
11955;SDS011;6038;52.276;10.530;2023-07-30T12:32:29;620.15;;;574.17;;
11955;SDS011;6038;52.276;10.530;2023-07-30T12:34:57;610.60;;;565.67;;
11955;SDS011;6038;52.276;10.530;2023-07-30T12:37:24;635.92;;;588.55;;
11955;SDS011;6038;52.276;10.530;2023-07-30T12:39:50;689.53;;;637.33;;
11955;SDS011;6038;52.276;10.530;2023-07-30T12:42:17;734.60;;;678.88;;
11955;SDS011;6038;52.276;10.530;2023-07-30T12:44:46;736.05;;;679.88;;
11955;SDS011;6038;52.276;10.530;2023-07-30T12:47:12;777.10;;;717.17;;
11955;SDS011;6038;52.276;10.530;2023-07-30T12:49:38;796.58;;;735.17;;
11955;SDS011;6038;52.276;10.530;2023-07-30T12:52:04;792.50;;;729.78;;
11955;SDS011;6038;52.276;10.530;2023-07-30T12:54:30;725.17;;;668.28;;
11955;SDS011;6038;52.276;10.530;2023-07-30T12:56:56;761.40;;;702.55;;
11955;SDS011;6038;52.276;10.530;2023-07-30T12:59:22;648.40;;;599.15;;
11955;SDS011;6038;52.276;10.530;2023-07-30T13:01:48;769.13;;;708.28;;
11955;SDS011;6038;52.276;10.530;2023-07-30T13:04:14;860.42;;;791.30;;
11955;SDS011;6038;52.276;10.530;2023-07-30T13:06:40;953.45;;;877.28;;
11955;SDS011;6038;52.276;10.530;2023-07-30T13:09:06;895.95;;;823.00;;
11955;SDS011;6038;52.276;10.530;2023-07-30T13:11:32;1081.45;;;989.45;;
11955;SDS011;6038;52.276;10.530;2023-07-30T13:13:58;1096.47;;;998.83;;
11955;SDS011;6038;52.276;10.530;2023-07-30T13:16:24;1116.70;;;999.90;;
11955;SDS011;6038;52.276;10.530;2023-07-30T13:18:50;968.10;;;884.25;;
11955;SDS011;6038;52.276;10.530;2023-07-30T13:21:17;1061.80;;;968.22;;
11955;SDS011;6038;52.276;10.530;2023-07-30T13:23:43;837.45;;;763.53;;
11955;SDS011;6038;52.276;10.530;2023-07-30T13:26:10;878.13;;;799.45;;
11955;SDS011;6038;52.276;10.530;2023-07-30T13:28:36;957.90;;;871.75;;
11955;SDS011;6038;52.276;10.530;2023-07-30T13:31:02;815.70;;;742.65;;
11955;SDS011;6038;52.276;10.530;2023-07-30T13:33:28;862.55;;;784.05;;
11955;SDS011;6038;52.276;10.530;2023-07-30T13:35:53;841.08;;;763.78;;
11955;SDS011;6038;52.276;10.530;2023-07-30T13:38:19;867.70;;;787.47;;
11955;SDS011;6038;52.276;10.530;2023-07-30T13:40:47;857.38;;;778.58;;
11955;SDS011;6038;52.276;10.530;2023-07-30T13:43:13;629.95;;;574.33;;
11955;SDS011;6038;52.276;10.530;2023-07-30T13:45:39;647.35;;;590.03;;
11955;SDS011;6038;52.276;10.530;2023-07-30T13:48:05;643.13;;;586.85;;
11955;SDS011;6038;52.276;10.530;2023-07-30T13:50:31;687.92;;;627.40;;
11955;SDS011;6038;52.276;10.530;2023-07-30T13:52:57;724.58;;;660.08;;